createdAt,value
2017-11-22T00:02:35.209Z,15.13
2017-11-22T00:17:36.657Z,11.77
2017-11-22T00:32:34.824Z,12.27
2017-11-22T00:47:33.561Z,11.57
2017-11-22T01:02:33.736Z,12.37
2017-11-22T01:17:35.877Z,9.70
2017-11-22T01:32:34.061Z,8.50
2017-11-22T01:47:33.959Z,9.23
2017-11-22T02:02:35.701Z,7.70
2017-11-22T02:17:34.801Z,8.87
2017-11-22T02:32:34.031Z,8.77
2017-11-22T02:47:34.017Z,8.30
2017-11-22T03:02:34.658Z,10.00
2017-11-22T03:17:34.549Z,7.50
2017-11-22T03:32:33.727Z,8.47
2017-11-22T03:47:33.731Z,7.27
2017-11-22T04:02:42.589Z,8.57
2017-11-22T04:17:33.702Z,7.20
2017-11-22T04:32:33.577Z,6.33
2017-11-22T04:47:34.264Z,8.70
2017-11-22T05:02:35.661Z,9.57
2017-11-22T05:17:33.481Z,7.20
2017-11-22T05:32:33.499Z,7.20
2017-11-22T05:47:33.377Z,8.17
2017-11-22T06:02:36.393Z,9.40
2017-11-22T06:17:34.279Z,7.50
2017-11-22T06:32:34.276Z,8.53
2017-11-22T06:47:34.211Z,10.57
2017-11-22T07:02:40.009Z,10.23
2017-11-22T07:17:34.229Z,10.80
2017-11-22T07:32:36.813Z,10.87
2017-11-22T07:47:34.799Z,11.90
2017-11-22T08:02:41.166Z,4.90
2017-11-22T08:17:35.503Z,3.70
2017-11-22T08:32:34.664Z,4.10
2017-11-22T08:47:35.259Z,3.40
2017-11-22T09:02:34.589Z,3.03
2017-11-22T09:17:34.932Z,3.07
2017-11-22T09:32:34.933Z,3.00
2017-11-22T09:47:34.876Z,3.23
2017-11-22T10:02:34.762Z,2.77
2017-11-22T10:17:33.728Z,3.50
2017-11-22T10:32:38.168Z,3.20
2017-11-22T10:47:35.306Z,3.30
2017-11-22T11:02:35.048Z,3.33
2017-11-22T11:17:34.482Z,2.83
2017-11-22T11:32:34.414Z,3.50
2017-11-22T11:47:34.321Z,3.60
2017-11-22T12:02:34.222Z,3.10
2017-11-22T12:17:36.426Z,3.00
2017-11-22T12:32:37.423Z,3.13
2017-11-22T12:47:35.619Z,3.93
2017-11-22T13:02:37.489Z,3.60
2017-11-22T13:17:35.080Z,3.90
2017-11-22T13:32:38.084Z,5.07
2017-11-22T13:47:39.976Z,3.90
2017-11-22T14:02:34.958Z,4.47
2017-11-22T14:17:34.895Z,4.23
2017-11-22T14:32:36.331Z,5.90
2017-11-22T14:47:37.610Z,5.13
2017-11-22T15:02:37.692Z,6.23
2017-11-22T15:17:34.682Z,6.83
2017-11-22T15:32:36.644Z,8.13
2017-11-22T15:47:34.537Z,6.70
2017-11-22T16:02:39.513Z,7.20
2017-11-22T16:17:34.604Z,9.30
2017-11-22T16:32:35.477Z,11.90
2017-11-22T16:47:34.437Z,13.50
2017-11-22T17:02:34.486Z,21.57
2017-11-22T17:32:36.358Z,23.33
2017-11-22T17:47:35.084Z,16.60
2017-11-22T18:02:37.579Z,17.53
2017-11-22T18:17:36.119Z,18.90
2017-11-22T18:32:35.995Z,22.10
2017-11-22T18:47:34.658Z,24.10
2017-11-22T19:02:35.003Z,28.70
2017-11-22T19:17:37.210Z,29.07
2017-11-22T19:32:39.974Z,27.20
2017-11-22T19:47:39.695Z,28.57
2017-11-22T20:02:34.202Z,25.70
2017-11-22T20:17:35.158Z,26.10
2017-11-22T20:32:34.263Z,25.80
2017-11-22T20:47:36.631Z,26.43
2017-11-22T21:02:33.794Z,28.60
2017-11-22T21:17:33.790Z,30.80
2017-11-22T21:32:33.921Z,30.50
2017-11-22T21:47:34.584Z,28.00
2017-11-22T22:02:35.275Z,25.33
2017-11-22T22:17:34.274Z,24.90
2017-11-22T22:32:33.928Z,23.40
2017-11-22T22:47:33.832Z,33.50
2017-11-22T23:02:36.518Z,23.63
2017-11-22T23:17:34.299Z,25.37
2017-11-22T23:32:34.946Z,25.10
2017-11-22T23:47:34.863Z,22.53
